This is the latest recevied weather packets stored in our database for station/object DL7GAI-7. If no packets are shown the sender has not sent any weather packets the latest 1 day(s).
| Time | Temp. | Humidity | Pressure | Rain* | Wind** | Luminosity | Snow |
|---|---|---|---|---|---|---|---|
| 1777980382 | 14.44° C | 78% | 1008.7 hPa | 0 mm | 1.34 m/s, 225° | - | - |
| 1777979580 | 14.44° C | 78% | 1008.7 hPa | 0 mm | 1.34 m/s, 225° | - | - |
| 1777978840 | 13.89° C | 79% | 1008.6 hPa | 0 mm | 0.89 m/s, 315° | - | - |
| 1777978080 | 13.89° C | 79% | 1008.6 hPa | 0 mm | 0.89 m/s, 315° | - | - |
| 1777977255 | 13.33° C | 81% | 1009.1 hPa | 0 mm | 2.68 m/s, 315° | - | - |
| 1777976474 | 13.33° C | 81% | 1009.1 hPa | 0 mm | 2.68 m/s, 315° | - | - |
| 1777975702 | 13.33° C | 81% | 1009.1 hPa | 0 mm | 2.68 m/s, 315° | - | - |
| 1777974904 | 13.33° C | 78% | 1009.3 hPa | 0 mm | 1.79 m/s, 270° | - | - |
| 1777974090 | 13.33° C | 78% | 1009.3 hPa | 0 mm | 1.79 m/s, 270° | - | - |
| 1777973205 | 13.89° C | 78% | 1009.3 hPa | 0 mm | 0.89 m/s, 270° | - | - |
| 1777972420 | 13.89° C | 78% | 1009.3 hPa | 0 mm | 0.89 m/s, 270° | - | - |
| 1777971620 | 13.33° C | 80% | 1009.5 hPa | 0 mm | 1.34 m/s, 270° | - | - |
| 1777970780 | 13.33° C | 80% | 1009.5 hPa | 0 mm | 1.34 m/s, 270° | - | - |
| 1777970000 | 13.33° C | 77% | 1009.6 hPa | 0 mm | 0.89 m/s, 270° | - | - |
| 1777969175 | 13.33° C | 77% | 1009.6 hPa | 0 mm | 0.89 m/s, 270° | - | - |
| 1777968322 | 12.78° C | 80% | 1009.9 hPa | 0 mm | 0.89 m/s, 180° | - | - |
| 1777967488 | 12.78° C | 80% | 1009.9 hPa | 0 mm | 0.89 m/s, 180° | - | - |
| 1777966685 | 12.78° C | 80% | 1009.9 hPa | 0 mm | 0.89 m/s, 180° | - | - |
| 1777965902 | 12.78° C | 81% | 1010.1 hPa | 0 mm | 0 m/s | - | - |
| 1777965080 | 12.78° C | 81% | 1010.1 hPa | 0 mm | 0 m/s | - | - |
| 1777964322 | 11.11° C | 89% | 1010.3 hPa | 0 mm | 0.89 m/s, 225° | - | - |
| 1777963435 | 11.11° C | 89% | 1010.3 hPa | 0 mm | 0.89 m/s, 225° | - | - |
| 1777962645 | 10° C | 92% | 1010.5 hPa | 0 mm | 0.89 m/s, 90° | - | - |
| 1777961840 | 10° C | 92% | 1010.5 hPa | 0 mm | 0.89 m/s, 90° | - | - |
| 1777960995 | 8.33° C | 93% | 1010.8 hPa | 0 mm | 0.45 m/s, 45° | - | - |
* Rain latest hour (hover to see other rain measurements)
** Current wind speed in m/s (hover to see current wind gust speed)